sensor_id;sensor_type;location;lat;lon;timestamp;P1;durP1;ratioP1;P2;durP2;ratioP2
40955;SDS011;26687;48.254;11.454;2023-11-19T00:02:32;1.27;;;1.17;;
40955;SDS011;26687;48.254;11.454;2023-11-19T00:05:33;1.85;;;1.38;;
40955;SDS011;26687;48.254;11.454;2023-11-19T00:08:33;1.20;;;1.10;;
40955;SDS011;26687;48.254;11.454;2023-11-19T00:11:33;1.30;;;1.20;;
40955;SDS011;26687;48.254;11.454;2023-11-19T00:14:33;1.30;;;1.20;;
40955;SDS011;26687;48.254;11.454;2023-11-19T00:17:34;2.40;;;1.48;;
40955;SDS011;26687;48.254;11.454;2023-11-19T00:20:34;1.50;;;1.33;;
40955;SDS011;26687;48.254;11.454;2023-11-19T00:23:34;2.05;;;1.45;;
40955;SDS011;26687;48.254;11.454;2023-11-19T00:26:35;1.20;;;1.10;;
40955;SDS011;26687;48.254;11.454;2023-11-19T00:29:35;1.63;;;1.20;;
40955;SDS011;26687;48.254;11.454;2023-11-19T00:32:36;1.77;;;1.25;;
40955;SDS011;26687;48.254;11.454;2023-11-19T00:35:38;1.70;;;1.35;;
40955;SDS011;26687;48.254;11.454;2023-11-19T00:38:38;3.20;;;1.20;;
40955;SDS011;26687;48.254;11.454;2023-11-19T00:41:38;1.67;;;1.35;;
40955;SDS011;26687;48.254;11.454;2023-11-19T00:44:40;1.30;;;1.20;;
40955;SDS011;26687;48.254;11.454;2023-11-19T00:47:41;1.35;;;1.25;;
40955;SDS011;26687;48.254;11.454;2023-11-19T00:50:41;1.53;;;1.20;;
40955;SDS011;26687;48.254;11.454;2023-11-19T00:53:44;1.87;;;1.70;;
40955;SDS011;26687;48.254;11.454;2023-11-19T00:56:44;1.10;;;1.00;;
40955;SDS011;26687;48.254;11.454;2023-11-19T00:59:44;1.40;;;1.20;;
40955;SDS011;26687;48.254;11.454;2023-11-19T01:02:45;1.50;;;1.40;;
40955;SDS011;26687;48.254;11.454;2023-11-19T01:05:46;1.67;;;0.98;;
40955;SDS011;26687;48.254;11.454;2023-11-19T01:08:46;1.30;;;1.20;;
40955;SDS011;26687;48.254;11.454;2023-11-19T01:11:47;2.47;;;1.43;;
40955;SDS011;26687;48.254;11.454;2023-11-19T01:14:47;1.33;;;1.23;;
40955;SDS011;26687;48.254;11.454;2023-11-19T01:17:47;1.40;;;1.30;;
40955;SDS011;26687;48.254;11.454;2023-11-19T01:20:47;2.17;;;0.93;;
40955;SDS011;26687;48.254;11.454;2023-11-19T01:23:47;1.23;;;1.13;;
40955;SDS011;26687;48.254;11.454;2023-11-19T01:26:48;0.80;;;0.80;;
40955;SDS011;26687;48.254;11.454;2023-11-19T01:29:48;1.00;;;0.90;;
40955;SDS011;26687;48.254;11.454;2023-11-19T01:32:49;1.42;;;1.10;;
40955;SDS011;26687;48.254;11.454;2023-11-19T01:35:49;1.20;;;0.90;;
40955;SDS011;26687;48.254;11.454;2023-11-19T01:38:49;1.48;;;0.82;;
40955;SDS011;26687;48.254;11.454;2023-11-19T01:41:50;1.10;;;1.00;;
40955;SDS011;26687;48.254;11.454;2023-11-19T01:44:57;1.30;;;1.00;;
40955;SDS011;26687;48.254;11.454;2023-11-19T01:47:58;0.60;;;0.55;;
40955;SDS011;26687;48.254;11.454;2023-11-19T01:50:59;0.50;;;0.50;;
40955;SDS011;26687;48.254;11.454;2023-11-19T01:54:00;1.85;;;0.85;;
40955;SDS011;26687;48.254;11.454;2023-11-19T01:57:00;1.00;;;0.82;;
40955;SDS011;26687;48.254;11.454;2023-11-19T02:00:01;0.90;;;0.70;;
40955;SDS011;26687;48.254;11.454;2023-11-19T02:03:02;1.90;;;0.77;;
40955;SDS011;26687;48.254;11.454;2023-11-19T02:06:03;0.70;;;0.50;;
40955;SDS011;26687;48.254;11.454;2023-11-19T02:09:04;0.75;;;0.40;;
40955;SDS011;26687;48.254;11.454;2023-11-19T02:12:07;0.65;;;0.50;;
40955;SDS011;26687;48.254;11.454;2023-11-19T02:15:08;0.60;;;0.50;;
40955;SDS011;26687;48.254;11.454;2023-11-19T02:18:21;1.40;;;0.60;;
40955;SDS011;26687;48.254;11.454;2023-11-19T02:24:22;0.47;;;0.40;;
40955;SDS011;26687;48.254;11.454;2023-11-19T02:27:29;0.70;;;0.32;;
40955;SDS011;26687;48.254;11.454;2023-11-19T02:30:30;1.05;;;0.30;;
40955;SDS011;26687;48.254;11.454;2023-11-19T02:33:32;0.35;;;0.28;;
40955;SDS011;26687;48.254;11.454;2023-11-19T02:36:32;0.90;;;0.40;;
40955;SDS011;26687;48.254;11.454;2023-11-19T02:39:32;0.38;;;0.17;;
40955;SDS011;26687;48.254;11.454;2023-11-19T02:42:32;0.40;;;0.10;;
40955;SDS011;26687;48.254;11.454;2023-11-19T02:45:33;0.30;;;0.20;;
40955;SDS011;26687;48.254;11.454;2023-11-19T02:48:33;0.23;;;0.20;;
40955;SDS011;26687;48.254;11.454;2023-11-19T02:51:35;1.77;;;0.20;;
40955;SDS011;26687;48.254;11.454;2023-11-19T02:54:35;0.83;;;0.20;;
40955;SDS011;26687;48.254;11.454;2023-11-19T02:57:35;1.00;;;0.20;;
40955;SDS011;26687;48.254;11.454;2023-11-19T03:00:36;0.38;;;0.10;;
40955;SDS011;26687;48.254;11.454;2023-11-19T03:03:47;0.22;;;0.10;;
40955;SDS011;26687;48.254;11.454;2023-11-19T03:06:53;0.28;;;0.20;;
40955;SDS011;26687;48.254;11.454;2023-11-19T03:09:53;0.20;;;0.10;;
40955;SDS011;26687;48.254;11.454;2023-11-19T03:12:54;0.35;;;0.20;;
40955;SDS011;26687;48.254;11.454;2023-11-19T03:15:56;0.20;;;0.10;;
40955;SDS011;26687;48.254;11.454;2023-11-19T03:18:57;0.55;;;0.20;;
40955;SDS011;26687;48.254;11.454;2023-11-19T03:21:57;0.40;;;0.17;;
40955;SDS011;26687;48.254;11.454;2023-11-19T03:24:57;0.90;;;0.20;;
40955;SDS011;26687;48.254;11.454;2023-11-19T03:27:57;0.35;;;0.20;;
40955;SDS011;26687;48.254;11.454;2023-11-19T03:30:58;0.43;;;0.10;;
40955;SDS011;26687;48.254;11.454;2023-11-19T03:33:58;0.15;;;0.10;;
40955;SDS011;26687;48.254;11.454;2023-11-19T03:36:59;0.82;;;0.10;;
40955;SDS011;26687;48.254;11.454;2023-11-19T03:39:59;0.20;;;0.10;;
40955;SDS011;26687;48.254;11.454;2023-11-19T03:42:59;0.35;;;0.10;;
40955;SDS011;26687;48.254;11.454;2023-11-19T03:46:00;0.50;;;0.20;;
40955;SDS011;26687;48.254;11.454;2023-11-19T03:49:00;0.13;;;0.10;;
40955;SDS011;26687;48.254;11.454;2023-11-19T03:52:00;0.10;;;0.10;;
40955;SDS011;26687;48.254;11.454;2023-11-19T03:55:01;0.22;;;0.10;;
40955;SDS011;26687;48.254;11.454;2023-11-19T03:58:01;0.50;;;0.10;;
40955;SDS011;26687;48.254;11.454;2023-11-19T04:01:01;0.77;;;0.20;;
40955;SDS011;26687;48.254;11.454;2023-11-19T04:04:02;0.30;;;0.10;;
40955;SDS011;26687;48.254;11.454;2023-11-19T04:07:03;0.52;;;0.10;;
40955;SDS011;26687;48.254;11.454;2023-11-19T04:10:03;1.58;;;0.17;;
40955;SDS011;26687;48.254;11.454;2023-11-19T04:13:04;0.20;;;0.13;;
40955;SDS011;26687;48.254;11.454;2023-11-19T04:16:04;0.43;;;0.03;;
40955;SDS011;26687;48.254;11.454;2023-11-19T04:19:04;0.63;;;0.10;;
40955;SDS011;26687;48.254;11.454;2023-11-19T04:22:05;0.17;;;0.10;;
40955;SDS011;26687;48.254;11.454;2023-11-19T04:25:05;0.30;;;0.22;;
40955;SDS011;26687;48.254;11.454;2023-11-19T04:28:05;0.30;;;0.10;;
40955;SDS011;26687;48.254;11.454;2023-11-19T04:31:06;0.40;;;0.20;;
40955;SDS011;26687;48.254;11.454;2023-11-19T04:34:07;0.23;;;0.17;;
40955;SDS011;26687;48.254;11.454;2023-11-19T04:37:07;0.60;;;0.20;;
40955;SDS011;26687;48.254;11.454;2023-11-19T04:40:07;0.30;;;0.20;;
40955;SDS011;26687;48.254;11.454;2023-11-19T04:43:07;0.75;;;0.15;;
40955;SDS011;26687;48.254;11.454;2023-11-19T04:46:09;0.10;;;0.10;;
40955;SDS011;26687;48.254;11.454;2023-11-19T04:49:09;0.28;;;0.10;;
40955;SDS011;26687;48.254;11.454;2023-11-19T04:52:10;0.45;;;0.10;;
40955;SDS011;26687;48.254;11.454;2023-11-19T04:55:12;0.17;;;0.10;;
40955;SDS011;26687;48.254;11.454;2023-11-19T04:58:12;0.10;;;0.10;;
40955;SDS011;26687;48.254;11.454;2023-11-19T05:01:15;0.10;;;0.10;;
40955;SDS011;26687;48.254;11.454;2023-11-19T05:04:17;0.17;;;0.10;;
40955;SDS011;26687;48.254;11.454;2023-11-19T05:07:18;0.25;;;0.25;;
40955;SDS011;26687;48.254;11.454;2023-11-19T05:10:18;0.32;;;0.15;;
40955;SDS011;26687;48.254;11.454;2023-11-19T05:13:19;0.40;;;0.20;;
40955;SDS011;26687;48.254;11.454;2023-11-19T05:16:19;0.65;;;0.20;;
40955;SDS011;26687;48.254;11.454;2023-11-19T05:19:20;0.47;;;0.20;;
40955;SDS011;26687;48.254;11.454;2023-11-19T05:22:21;0.20;;;0.10;;
40955;SDS011;26687;48.254;11.454;2023-11-19T05:25:21;0.52;;;0.17;;
40955;SDS011;26687;48.254;11.454;2023-11-19T05:28:21;0.43;;;0.22;;
40955;SDS011;26687;48.254;11.454;2023-11-19T05:31:24;0.20;;;0.10;;
40955;SDS011;26687;48.254;11.454;2023-11-19T05:34:24;0.68;;;0.20;;
40955;SDS011;26687;48.254;11.454;2023-11-19T05:37:25;0.20;;;0.20;;
40955;SDS011;26687;48.254;11.454;2023-11-19T05:40:25;0.70;;;0.22;;
40955;SDS011;26687;48.254;11.454;2023-11-19T05:43:25;0.73;;;0.20;;
40955;SDS011;26687;48.254;11.454;2023-11-19T05:46:25;0.15;;;0.10;;
40955;SDS011;26687;48.254;11.454;2023-11-19T05:49:27;0.30;;;0.10;;
40955;SDS011;26687;48.254;11.454;2023-11-19T05:52:27;0.32;;;0.22;;
40955;SDS011;26687;48.254;11.454;2023-11-19T05:55:28;0.38;;;0.20;;
40955;SDS011;26687;48.254;11.454;2023-11-19T05:58:28;0.30;;;0.25;;
40955;SDS011;26687;48.254;11.454;2023-11-19T06:01:29;0.63;;;0.28;;
40955;SDS011;26687;48.254;11.454;2023-11-19T06:04:29;0.75;;;0.30;;
40955;SDS011;26687;48.254;11.454;2023-11-19T06:07:29;0.20;;;0.15;;
40955;SDS011;26687;48.254;11.454;2023-11-19T06:10:29;0.30;;;0.10;;
40955;SDS011;26687;48.254;11.454;2023-11-19T06:13:31;0.55;;;0.25;;
40955;SDS011;26687;48.254;11.454;2023-11-19T06:16:31;0.40;;;0.23;;
40955;SDS011;26687;48.254;11.454;2023-11-19T06:19:31;0.20;;;0.20;;
40955;SDS011;26687;48.254;11.454;2023-11-19T06:22:32;0.20;;;0.10;;
40955;SDS011;26687;48.254;11.454;2023-11-19T06:25:32;0.40;;;0.20;;
40955;SDS011;26687;48.254;11.454;2023-11-19T06:28:32;0.30;;;0.20;;
40955;SDS011;26687;48.254;11.454;2023-11-19T06:31:33;0.40;;;0.20;;
40955;SDS011;26687;48.254;11.454;2023-11-19T06:34:33;0.30;;;0.20;;
40955;SDS011;26687;48.254;11.454;2023-11-19T06:37:33;0.30;;;0.20;;
40955;SDS011;26687;48.254;11.454;2023-11-19T06:40:34;0.68;;;0.40;;
40955;SDS011;26687;48.254;11.454;2023-11-19T06:43:37;0.32;;;0.20;;
40955;SDS011;26687;48.254;11.454;2023-11-19T06:46:37;0.28;;;0.28;;
40955;SDS011;26687;48.254;11.454;2023-11-19T06:49:37;0.52;;;0.30;;
40955;SDS011;26687;48.254;11.454;2023-11-19T06:52:38;0.40;;;0.20;;
40955;SDS011;26687;48.254;11.454;2023-11-19T06:55:38;0.80;;;0.30;;
40955;SDS011;26687;48.254;11.454;2023-11-19T06:58:38;0.80;;;0.50;;
40955;SDS011;26687;48.254;11.454;2023-11-19T07:01:39;0.35;;;0.28;;
40955;SDS011;26687;48.254;11.454;2023-11-19T07:04:43;0.40;;;0.30;;
40955;SDS011;26687;48.254;11.454;2023-11-19T07:07:43;0.20;;;0.20;;
40955;SDS011;26687;48.254;11.454;2023-11-19T07:10:45;0.63;;;0.30;;
40955;SDS011;26687;48.254;11.454;2023-11-19T07:13:47;0.68;;;0.30;;
40955;SDS011;26687;48.254;11.454;2023-11-19T07:16:47;0.40;;;0.40;;
40955;SDS011;26687;48.254;11.454;2023-11-19T07:19:49;0.40;;;0.30;;
40955;SDS011;26687;48.254;11.454;2023-11-19T07:22:50;0.38;;;0.20;;
40955;SDS011;26687;48.254;11.454;2023-11-19T07:25:50;0.60;;;0.30;;
40955;SDS011;26687;48.254;11.454;2023-11-19T07:28:53;0.90;;;0.40;;
40955;SDS011;26687;48.254;11.454;2023-11-19T07:31:53;0.20;;;0.10;;
40955;SDS011;26687;48.254;11.454;2023-11-19T07:34:53;1.52;;;0.35;;
40955;SDS011;26687;48.254;11.454;2023-11-19T07:37:54;1.83;;;0.43;;
40955;SDS011;26687;48.254;11.454;2023-11-19T07:40:54;0.70;;;0.47;;
40955;SDS011;26687;48.254;11.454;2023-11-19T07:43:54;1.27;;;0.40;;
40955;SDS011;26687;48.254;11.454;2023-11-19T07:46:54;1.40;;;0.60;;
40955;SDS011;26687;48.254;11.454;2023-11-19T07:49:55;0.60;;;0.40;;
40955;SDS011;26687;48.254;11.454;2023-11-19T07:52:55;1.00;;;0.45;;
40955;SDS011;26687;48.254;11.454;2023-11-19T07:55:55;0.68;;;0.30;;
40955;SDS011;26687;48.254;11.454;2023-11-19T07:58:55;1.70;;;0.40;;
40955;SDS011;26687;48.254;11.454;2023-11-19T08:01:55;0.80;;;0.40;;
40955;SDS011;26687;48.254;11.454;2023-11-19T08:04:55;1.47;;;0.40;;
40955;SDS011;26687;48.254;11.454;2023-11-19T08:07:56;1.25;;;0.70;;
40955;SDS011;26687;48.254;11.454;2023-11-19T08:10:56;0.88;;;0.40;;
40955;SDS011;26687;48.254;11.454;2023-11-19T08:13:56;3.10;;;0.75;;
40955;SDS011;26687;48.254;11.454;2023-11-19T08:16:57;1.20;;;0.55;;
40955;SDS011;26687;48.254;11.454;2023-11-19T08:19:57;1.27;;;0.60;;
40955;SDS011;26687;48.254;11.454;2023-11-19T08:22:57;1.65;;;0.65;;
40955;SDS011;26687;48.254;11.454;2023-11-19T08:25:57;1.00;;;0.50;;
40955;SDS011;26687;48.254;11.454;2023-11-19T08:28:57;2.93;;;0.73;;
40955;SDS011;26687;48.254;11.454;2023-11-19T08:31:59;1.85;;;0.60;;
40955;SDS011;26687;48.254;11.454;2023-11-19T08:35:00;1.52;;;0.85;;
40955;SDS011;26687;48.254;11.454;2023-11-19T08:38:00;1.50;;;0.60;;
40955;SDS011;26687;48.254;11.454;2023-11-19T08:41:01;1.25;;;0.40;;
40955;SDS011;26687;48.254;11.454;2023-11-19T08:44:01;1.40;;;0.73;;
40955;SDS011;26687;48.254;11.454;2023-11-19T08:47:01;1.50;;;0.50;;
40955;SDS011;26687;48.254;11.454;2023-11-19T08:50:01;2.00;;;0.80;;
40955;SDS011;26687;48.254;11.454;2023-11-19T08:53:01;0.80;;;0.50;;
40955;SDS011;26687;48.254;11.454;2023-11-19T08:56:02;1.40;;;0.73;;
40955;SDS011;26687;48.254;11.454;2023-11-19T08:59:02;1.02;;;0.60;;
40955;SDS011;26687;48.254;11.454;2023-11-19T09:02:05;1.15;;;0.50;;
40955;SDS011;26687;48.254;11.454;2023-11-19T09:05:05;1.52;;;0.82;;
40955;SDS011;26687;48.254;11.454;2023-11-19T09:08:07;1.00;;;0.63;;
40955;SDS011;26687;48.254;11.454;2023-11-19T09:11:07;1.83;;;0.43;;
40955;SDS011;26687;48.254;11.454;2023-11-19T09:14:08;1.25;;;0.60;;
40955;SDS011;26687;48.254;11.454;2023-11-19T09:17:08;0.90;;;0.60;;
40955;SDS011;26687;48.254;11.454;2023-11-19T09:20:09;0.98;;;0.60;;
40955;SDS011;26687;48.254;11.454;2023-11-19T09:23:12;1.27;;;0.55;;
40955;SDS011;26687;48.254;11.454;2023-11-19T09:26:13;1.00;;;0.30;;
40955;SDS011;26687;48.254;11.454;2023-11-19T09:29:13;0.57;;;0.30;;
40955;SDS011;26687;48.254;11.454;2023-11-19T09:32:14;0.30;;;0.30;;
40955;SDS011;26687;48.254;11.454;2023-11-19T09:35:14;0.50;;;0.40;;
40955;SDS011;26687;48.254;11.454;2023-11-19T09:38:16;1.50;;;0.40;;
40955;SDS011;26687;48.254;11.454;2023-11-19T09:41:16;0.55;;;0.30;;
40955;SDS011;26687;48.254;11.454;2023-11-19T09:44:19;0.80;;;0.25;;
40955;SDS011;26687;48.254;11.454;2023-11-19T09:47:19;1.23;;;0.40;;
40955;SDS011;26687;48.254;11.454;2023-11-19T09:50:21;0.60;;;0.40;;
40955;SDS011;26687;48.254;11.454;2023-11-19T09:53:21;2.38;;;0.70;;
40955;SDS011;26687;48.254;11.454;2023-11-19T09:56:21;1.13;;;0.67;;
40955;SDS011;26687;48.254;11.454;2023-11-19T09:59:22;1.33;;;0.73;;
40955;SDS011;26687;48.254;11.454;2023-11-19T10:02:22;1.20;;;0.70;;
40955;SDS011;26687;48.254;11.454;2023-11-19T10:05:23;1.27;;;1.00;;
40955;SDS011;26687;48.254;11.454;2023-11-19T10:08:24;0.85;;;0.55;;
40955;SDS011;26687;48.254;11.454;2023-11-19T10:11:24;0.97;;;0.47;;
40955;SDS011;26687;48.254;11.454;2023-11-19T10:14:24;1.00;;;0.50;;
40955;SDS011;26687;48.254;11.454;2023-11-19T10:17:34;0.88;;;0.40;;
40955;SDS011;26687;48.254;11.454;2023-11-19T10:20:35;1.17;;;0.45;;
40955;SDS011;26687;48.254;11.454;2023-11-19T10:23:48;1.55;;;0.75;;
40955;SDS011;26687;48.254;11.454;2023-11-19T10:29:49;1.15;;;0.60;;
40955;SDS011;26687;48.254;11.454;2023-11-19T10:36:01;0.93;;;0.20;;
40955;SDS011;26687;48.254;11.454;2023-11-19T10:39:01;0.57;;;0.30;;
40955;SDS011;26687;48.254;11.454;2023-11-19T10:42:17;1.00;;;0.55;;
40955;SDS011;26687;48.254;11.454;2023-11-19T10:45:23;1.05;;;0.70;;
40955;SDS011;26687;48.254;11.454;2023-11-19T10:48:24;1.00;;;0.60;;
40955;SDS011;26687;48.254;11.454;2023-11-19T10:51:25;1.17;;;0.47;;
40955;SDS011;26687;48.254;11.454;2023-11-19T10:54:25;0.60;;;0.50;;
40955;SDS011;26687;48.254;11.454;2023-11-19T10:57:26;1.75;;;0.50;;
40955;SDS011;26687;48.254;11.454;2023-11-19T11:03:39;0.63;;;0.30;;
40955;SDS011;26687;48.254;11.454;2023-11-19T11:06:39;1.10;;;0.40;;
40955;SDS011;26687;48.254;11.454;2023-11-19T11:09:39;0.95;;;0.32;;
40955;SDS011;26687;48.254;11.454;2023-11-19T11:12:41;0.43;;;0.30;;
40955;SDS011;26687;48.254;11.454;2023-11-19T11:15:44;1.15;;;0.28;;
40955;SDS011;26687;48.254;11.454;2023-11-19T11:18:46;0.17;;;0.17;;
40955;SDS011;26687;48.254;11.454;2023-11-19T11:21:50;0.30;;;0.20;;
40955;SDS011;26687;48.254;11.454;2023-11-19T11:25:07;0.40;;;0.20;;
40955;SDS011;26687;48.254;11.454;2023-11-19T11:37:45;0.20;;;0.13;;
40955;SDS011;26687;48.254;11.454;2023-11-19T11:41:14;0.40;;;0.28;;
40955;SDS011;26687;48.254;11.454;2023-11-19T11:44:08;0.75;;;0.17;;
40955;SDS011;26687;48.254;11.454;2023-11-19T11:47:08;0.20;;;0.10;;
40955;SDS011;26687;48.254;11.454;2023-11-19T11:50:12;1.73;;;0.57;;
40955;SDS011;26687;48.254;11.454;2023-11-19T11:53:13;0.45;;;0.20;;
40955;SDS011;26687;48.254;11.454;2023-11-19T11:56:13;0.57;;;0.20;;
40955;SDS011;26687;48.254;11.454;2023-11-19T11:59:19;0.20;;;0.20;;
40955;SDS011;26687;48.254;11.454;2023-11-19T12:02:21;1.95;;;0.13;;
40955;SDS011;26687;48.254;11.454;2023-11-19T12:05:22;0.30;;;0.10;;
40955;SDS011;26687;48.254;11.454;2023-11-19T12:08:26;1.27;;;0.20;;
40955;SDS011;26687;48.254;11.454;2023-11-19T12:11:27;0.17;;;0.10;;
40955;SDS011;26687;48.254;11.454;2023-11-19T12:17:48;0.38;;;0.20;;
40955;SDS011;26687;48.254;11.454;2023-11-19T12:20:49;0.40;;;0.20;;
40955;SDS011;26687;48.254;11.454;2023-11-19T12:23:49;0.30;;;0.20;;
40955;SDS011;26687;48.254;11.454;2023-11-19T12:26:49;0.82;;;0.32;;
40955;SDS011;26687;48.254;11.454;2023-11-19T12:29:52;0.22;;;0.20;;
40955;SDS011;26687;48.254;11.454;2023-11-19T12:32:53;0.52;;;0.17;;
40955;SDS011;26687;48.254;11.454;2023-11-19T12:35:56;0.32;;;0.20;;
40955;SDS011;26687;48.254;11.454;2023-11-19T12:38:56;1.30;;;0.27;;
40955;SDS011;26687;48.254;11.454;2023-11-19T12:41:56;0.88;;;0.20;;
40955;SDS011;26687;48.254;11.454;2023-11-19T12:44:59;0.30;;;0.20;;
40955;SDS011;26687;48.254;11.454;2023-11-19T12:48:06;0.32;;;0.20;;
40955;SDS011;26687;48.254;11.454;2023-11-19T12:51:06;0.25;;;0.20;;
40955;SDS011;26687;48.254;11.454;2023-11-19T12:54:07;0.50;;;0.20;;
40955;SDS011;26687;48.254;11.454;2023-11-19T12:57:07;0.30;;;0.10;;
40955;SDS011;26687;48.254;11.454;2023-11-19T13:00:18;0.25;;;0.10;;
40955;SDS011;26687;48.254;11.454;2023-11-19T13:03:28;0.30;;;0.30;;
40955;SDS011;26687;48.254;11.454;2023-11-19T13:06:29;2.95;;;0.25;;
40955;SDS011;26687;48.254;11.454;2023-11-19T13:09:29;0.30;;;0.20;;
40955;SDS011;26687;48.254;11.454;2023-11-19T13:12:29;1.20;;;0.20;;
40955;SDS011;26687;48.254;11.454;2023-11-19T13:15:29;0.50;;;0.20;;
40955;SDS011;26687;48.254;11.454;2023-11-19T13:18:30;0.60;;;0.30;;
40955;SDS011;26687;48.254;11.454;2023-11-19T13:21:30;0.20;;;0.10;;
40955;SDS011;26687;48.254;11.454;2023-11-19T13:24:30;0.13;;;0.13;;
40955;SDS011;26687;48.254;11.454;2023-11-19T13:27:31;0.85;;;0.30;;
40955;SDS011;26687;48.254;11.454;2023-11-19T13:30:31;0.32;;;0.10;;
40955;SDS011;26687;48.254;11.454;2023-11-19T13:33:31;0.60;;;0.20;;
40955;SDS011;26687;48.254;11.454;2023-11-19T13:36:31;0.50;;;0.20;;
40955;SDS011;26687;48.254;11.454;2023-11-19T13:39:32;0.55;;;0.20;;
40955;SDS011;26687;48.254;11.454;2023-11-19T13:42:32;1.53;;;0.30;;
40955;SDS011;26687;48.254;11.454;2023-11-19T13:45:32;1.47;;;0.20;;
40955;SDS011;26687;48.254;11.454;2023-11-19T13:48:32;0.40;;;0.20;;
40955;SDS011;26687;48.254;11.454;2023-11-19T13:51:33;0.63;;;0.10;;
40955;SDS011;26687;48.254;11.454;2023-11-19T13:54:33;0.20;;;0.15;;
40955;SDS011;26687;48.254;11.454;2023-11-19T13:57:33;0.68;;;0.20;;
40955;SDS011;26687;48.254;11.454;2023-11-19T14:00:34;0.47;;;0.20;;
40955;SDS011;26687;48.254;11.454;2023-11-19T14:03:34;1.63;;;0.27;;
40955;SDS011;26687;48.254;11.454;2023-11-19T14:06:34;0.20;;;0.20;;
40955;SDS011;26687;48.254;11.454;2023-11-19T14:09:34;0.32;;;0.30;;
40955;SDS011;26687;48.254;11.454;2023-11-19T14:12:35;0.73;;;0.37;;
40955;SDS011;26687;48.254;11.454;2023-11-19T14:15:38;0.30;;;0.30;;
40955;SDS011;26687;48.254;11.454;2023-11-19T14:18:38;0.10;;;0.10;;
40955;SDS011;26687;48.254;11.454;2023-11-19T14:21:38;0.20;;;0.20;;
40955;SDS011;26687;48.254;11.454;2023-11-19T14:24:38;0.85;;;0.50;;
40955;SDS011;26687;48.254;11.454;2023-11-19T14:27:41;0.57;;;0.30;;
40955;SDS011;26687;48.254;11.454;2023-11-19T14:30:41;0.57;;;0.13;;
40955;SDS011;26687;48.254;11.454;2023-11-19T14:33:41;0.23;;;0.20;;
40955;SDS011;26687;48.254;11.454;2023-11-19T14:36:41;0.30;;;0.30;;
40955;SDS011;26687;48.254;11.454;2023-11-19T14:39:42;0.38;;;0.30;;
40955;SDS011;26687;48.254;11.454;2023-11-19T14:42:44;0.88;;;0.22;;
40955;SDS011;26687;48.254;11.454;2023-11-19T14:45:44;0.30;;;0.10;;
40955;SDS011;26687;48.254;11.454;2023-11-19T14:48:44;0.53;;;0.20;;
40955;SDS011;26687;48.254;11.454;2023-11-19T14:51:44;0.80;;;0.40;;
40955;SDS011;26687;48.254;11.454;2023-11-19T14:54:44;0.80;;;0.20;;
40955;SDS011;26687;48.254;11.454;2023-11-19T14:57:45;0.20;;;0.20;;
40955;SDS011;26687;48.254;11.454;2023-11-19T15:00:46;0.47;;;0.30;;
40955;SDS011;26687;48.254;11.454;2023-11-19T15:03:46;0.30;;;0.20;;
40955;SDS011;26687;48.254;11.454;2023-11-19T15:06:46;0.52;;;0.20;;
40955;SDS011;26687;48.254;11.454;2023-11-19T15:09:46;0.45;;;0.28;;
40955;SDS011;26687;48.254;11.454;2023-11-19T15:12:46;0.30;;;0.20;;
40955;SDS011;26687;48.254;11.454;2023-11-19T15:15:47;2.30;;;0.20;;
40955;SDS011;26687;48.254;11.454;2023-11-19T15:18:47;1.27;;;0.47;;
40955;SDS011;26687;48.254;11.454;2023-11-19T15:21:47;0.55;;;0.40;;
40955;SDS011;26687;48.254;11.454;2023-11-19T15:24:47;0.75;;;0.20;;
40955;SDS011;26687;48.254;11.454;2023-11-19T15:27:48;0.50;;;0.30;;
40955;SDS011;26687;48.254;11.454;2023-11-19T15:30:48;0.47;;;0.25;;
40955;SDS011;26687;48.254;11.454;2023-11-19T15:33:48;0.23;;;0.20;;
40955;SDS011;26687;48.254;11.454;2023-11-19T15:36:48;0.93;;;0.20;;
40955;SDS011;26687;48.254;11.454;2023-11-19T15:39:49;0.80;;;0.40;;
40955;SDS011;26687;48.254;11.454;2023-11-19T15:42:51;0.80;;;0.70;;
40955;SDS011;26687;48.254;11.454;2023-11-19T15:45:54;0.85;;;0.70;;
40955;SDS011;26687;48.254;11.454;2023-11-19T15:48:54;0.50;;;0.40;;
40955;SDS011;26687;48.254;11.454;2023-11-19T15:51:54;0.80;;;0.50;;
40955;SDS011;26687;48.254;11.454;2023-11-19T15:54:54;1.67;;;0.70;;
40955;SDS011;26687;48.254;11.454;2023-11-19T15:57:54;0.70;;;0.60;;
40955;SDS011;26687;48.254;11.454;2023-11-19T16:00:55;0.60;;;0.57;;
40955;SDS011;26687;48.254;11.454;2023-11-19T16:03:56;2.33;;;0.40;;
40955;SDS011;26687;48.254;11.454;2023-11-19T16:06:56;1.17;;;1.08;;
40955;SDS011;26687;48.254;11.454;2023-11-19T16:09:56;1.17;;;0.47;;
40955;SDS011;26687;48.254;11.454;2023-11-19T16:12:56;1.10;;;0.83;;
40955;SDS011;26687;48.254;11.454;2023-11-19T16:15:56;1.60;;;0.60;;
40955;SDS011;26687;48.254;11.454;2023-11-19T16:18:57;1.08;;;0.50;;
40955;SDS011;26687;48.254;11.454;2023-11-19T16:21:59;0.75;;;0.50;;
40955;SDS011;26687;48.254;11.454;2023-11-19T16:25:09;1.20;;;0.55;;
40955;SDS011;26687;48.254;11.454;2023-11-19T16:28:10;1.33;;;0.80;;
40955;SDS011;26687;48.254;11.454;2023-11-19T16:31:10;1.60;;;1.10;;
40955;SDS011;26687;48.254;11.454;2023-11-19T16:34:10;1.27;;;1.00;;
40955;SDS011;26687;48.254;11.454;2023-11-19T16:37:10;1.58;;;1.20;;
40955;SDS011;26687;48.254;11.454;2023-11-19T16:40:10;2.30;;;0.70;;
40955;SDS011;26687;48.254;11.454;2023-11-19T16:43:11;1.02;;;0.88;;
40955;SDS011;26687;48.254;11.454;2023-11-19T16:46:12;1.42;;;1.02;;
40955;SDS011;26687;48.254;11.454;2023-11-19T16:49:12;1.20;;;0.90;;
40955;SDS011;26687;48.254;11.454;2023-11-19T16:52:13;0.50;;;0.47;;
40955;SDS011;26687;48.254;11.454;2023-11-19T16:55:14;0.70;;;0.70;;
40955;SDS011;26687;48.254;11.454;2023-11-19T16:58:15;0.80;;;0.80;;
40955;SDS011;26687;48.254;11.454;2023-11-19T17:01:15;2.10;;;1.90;;
40955;SDS011;26687;48.254;11.454;2023-11-19T17:04:16;1.10;;;1.00;;
40955;SDS011;26687;48.254;11.454;2023-11-19T17:07:17;0.70;;;0.63;;
40955;SDS011;26687;48.254;11.454;2023-11-19T17:10:17;1.50;;;1.33;;
40955;SDS011;26687;48.254;11.454;2023-11-19T17:13:18;1.60;;;1.40;;
40955;SDS011;26687;48.254;11.454;2023-11-19T17:16:21;1.50;;;0.70;;
40955;SDS011;26687;48.254;11.454;2023-11-19T17:19:22;1.25;;;0.50;;
40955;SDS011;26687;48.254;11.454;2023-11-19T17:22:22;1.05;;;0.40;;
40955;SDS011;26687;48.254;11.454;2023-11-19T17:25:22;1.00;;;0.70;;
40955;SDS011;26687;48.254;11.454;2023-11-19T17:28:23;1.13;;;0.50;;
40955;SDS011;26687;48.254;11.454;2023-11-19T17:31:23;0.40;;;0.30;;
40955;SDS011;26687;48.254;11.454;2023-11-19T17:34:23;0.43;;;0.40;;
40955;SDS011;26687;48.254;11.454;2023-11-19T17:37:25;0.73;;;0.40;;
40955;SDS011;26687;48.254;11.454;2023-11-19T17:40:25;0.75;;;0.40;;
40955;SDS011;26687;48.254;11.454;2023-11-19T17:43:28;0.70;;;0.38;;
40955;SDS011;26687;48.254;11.454;2023-11-19T17:46:28;1.85;;;0.40;;
40955;SDS011;26687;48.254;11.454;2023-11-19T17:49:28;1.73;;;0.55;;
40955;SDS011;26687;48.254;11.454;2023-11-19T17:52:29;0.57;;;0.37;;
40955;SDS011;26687;48.254;11.454;2023-11-19T17:55:29;1.20;;;0.50;;
40955;SDS011;26687;48.254;11.454;2023-11-19T17:58:29;1.33;;;0.43;;
40955;SDS011;26687;48.254;11.454;2023-11-19T18:01:32;0.90;;;0.52;;
40955;SDS011;26687;48.254;11.454;2023-11-19T18:04:33;0.80;;;0.40;;
40955;SDS011;26687;48.254;11.454;2023-11-19T18:07:37;1.35;;;0.60;;
40955;SDS011;26687;48.254;11.454;2023-11-19T18:10:37;1.00;;;0.50;;
40955;SDS011;26687;48.254;11.454;2023-11-19T18:13:38;1.10;;;0.60;;
40955;SDS011;26687;48.254;11.454;2023-11-19T18:16:38;1.05;;;0.52;;
40955;SDS011;26687;48.254;11.454;2023-11-19T18:19:38;2.33;;;0.75;;